Time;durP1;ratioP1;P1;durP2;ratioP2;P2;SDS_P1;SDS_P2;PMS_P1;PMS_P2;Temp;Humidity;BMP_temperature;BMP_pressure;BME280_temperature;BME280_humidity;BME280_pressure;Samples;Min_cycle;Max_cycle;Signal;HPM_P1;HPM_P2
2022/06/08 00:00:56;;;;;;;1.45;1.20;;;;;;;;;;5026347;28;20753;-69
2022/06/08 00:03:28;;;;;;;1.40;1.30;;;;;;;;;;5043049;28;20060;-69
2022/06/08 00:05:53;;;;;;;2.00;1.20;;;;;;;;;;5044086;28;20087;-71
2022/06/08 00:08:19;;;;;;;1.40;1.30;;;;;;;;;;5044206;28;20100;-69
2022/06/08 00:10:44;;;;;;;1.20;1.10;;;;;;;;;;5044113;28;20037;-69
2022/06/08 00:13:10;;;;;;;1.20;1.10;;;;;;;;;;5043426;28;20044;-69
2022/06/08 00:15:35;;;;;;;3.55;1.20;;;;;;;;;;5043441;28;20044;-69
2022/06/08 00:18:02;;;;;;;1.52;1.30;;;;;;;;;;5043707;28;20041;-69
2022/06/08 00:20:28;;;;;;;1.35;1.10;;;;;;;;;;5044112;28;20036;-69
2022/06/08 00:22:54;;;;;;;4.93;1.20;;;;;;;;;;5043831;28;20119;-69
2022/06/08 00:25:21;;;;;;;1.90;1.30;;;;;;;;;;5042974;28;20382;-69
2022/06/08 00:27:46;;;;;;;1.13;1.00;;;;;;;;;;5025366;28;20127;-69
2022/06/08 00:30:12;;;;;;;1.10;1.00;;;;;;;;;;5026109;28;20041;-68
2022/06/08 00:32:40;;;;;;;2.25;1.63;;;;;;;;;;5026152;28;20017;-68
2022/06/08 00:35:06;;;;;;;4.32;1.00;;;;;;;;;;5025288;28;20103;-68
2022/06/08 00:37:32;;;;;;;3.60;1.38;;;;;;;;;;5025446;28;21058;-68
2022/06/08 00:39:58;;;;;;;3.10;1.20;;;;;;;;;;5026229;28;20036;-68
2022/06/08 00:42:25;;;;;;;1.10;1.00;;;;;;;;;;5043055;28;20158;-68
2022/06/08 00:45:00;;;;;;;5.85;1.23;;;;;;;;;;5043535;28;20122;-71
2022/06/08 00:47:31;;;;;;;1.27;1.10;;;;;;;;;;5042285;28;20041;-69
2022/06/08 00:49:59;;;;;;;3.03;1.20;;;;;;;;;;5025724;28;20112;-68
2022/06/08 00:52:27;;;;;;;1.40;1.30;;;;;;;;;;5024973;28;20086;-68
2022/06/08 00:55:03;;;;;;;3.88;1.27;;;;;;;;;;5025110;28;20036;-69
2022/06/08 00:57:33;;;;;;;1.20;1.10;;;;;;;;;;5025611;28;20151;-68
2022/06/08 01:00:20;;;;;;;1.42;1.25;;;;;;;;;;5008770;28;20048;-69
2022/06/08 01:02:46;;;;;;;4.72;1.23;;;;;;;;;;5041305;28;20102;-68
2022/06/08 01:05:46;;;;;;;1.63;1.20;;;;;;;;;;5024858;28;20036;-68
2022/06/08 01:08:42;;;;;;;1.10;1.00;;;;;;;;;;5025180;28;20036;-69
2022/06/08 01:11:26;;;;;;;2.35;1.20;;;;;;;;;;5024496;28;20043;-69
2022/06/08 01:13:59;;;;;;;3.65;1.20;;;;;;;;;;5043041;28;20024;-68
2022/06/08 01:16:25;;;;;;;2.78;1.20;;;;;;;;;;5025073;28;20116;-69
2022/06/08 01:18:51;;;;;;;2.28;1.50;;;;;;;;;;5024956;28;20063;-69
2022/06/08 01:21:20;;;;;;;1.85;1.30;;;;;;;;;;5024222;28;20478;-69
2022/06/08 01:23:51;;;;;;;3.60;1.15;;;;;;;;;;5024251;28;20033;-69
2022/06/08 01:26:29;;;;;;;1.75;1.65;;;;;;;;;;5042433;28;20111;-69
2022/06/08 01:29:08;;;;;;;1.33;1.23;;;;;;;;;;5024487;28;20481;-69
2022/06/08 01:31:47;;;;;;;2.00;1.10;;;;;;;;;;5042209;28;20083;-69
2022/06/08 01:34:23;;;;;;;1.65;1.30;;;;;;;;;;5024096;28;20081;-69
2022/06/08 01:37:17;;;;;;;3.10;1.20;;;;;;;;;;5024531;28;20477;-68
2022/06/08 01:40:00;;;;;;;1.30;1.20;;;;;;;;;;5025020;28;20401;-69
2022/06/08 01:42:31;;;;;;;2.38;1.58;;;;;;;;;;5041485;28;20033;-69
2022/06/08 01:45:33;;;;;;;1.85;1.10;;;;;;;;;;5023452;28;20036;-69
2022/06/08 01:48:35;;;;;;;0.95;0.95;;;;;;;;;;5025236;28;20128;-70
2022/06/08 01:51:03;;;;;;;1.20;1.10;;;;;;;;;;5042608;28;20115;-69
2022/06/08 01:54:23;;;;;;;2.83;1.30;;;;;;;;;;5024408;28;20049;-69
2022/06/08 01:56:56;;;;;;;3.45;1.20;;;;;;;;;;4963391;28;20133;-69
2022/06/08 01:59:44;;;;;;;2.83;1.40;;;;;;;;;;5015079;28;20711;-69
2022/06/08 02:02:30;;;;;;;3.35;1.40;;;;;;;;;;5007653;28;20033;-69
2022/06/08 02:05:13;;;;;;;1.60;1.50;;;;;;;;;;5022802;28;20041;-69
2022/06/08 02:07:54;;;;;;;3.35;1.63;;;;;;;;;;5024113;28;20043;-69
2022/06/08 02:10:20;;;;;;;3.00;1.83;;;;;;;;;;5024123;28;20055;-69
2022/06/08 02:12:53;;;;;;;2.17;1.52;;;;;;;;;;5024038;28;20032;-69
2022/06/08 02:15:43;;;;;;;1.92;1.70;;;;;;;;;;5006703;28;20024;-69
2022/06/08 02:18:18;;;;;;;4.38;2.20;;;;;;;;;;5041761;28;20032;-69
2022/06/08 02:20:56;;;;;;;1.90;1.60;;;;;;;;;;5023536;28;20635;-69
2022/06/08 02:23:54;;;;;;;4.60;1.85;;;;;;;;;;5023632;28;20485;-67
2022/06/08 02:26:32;;;;;;;1.90;1.65;;;;;;;;;;5022590;28;20025;-69
2022/06/08 02:29:21;;;;;;;4.47;1.40;;;;;;;;;;5023777;28;20036;-68
2022/06/08 02:35:07;;;;;;;5.25;2.72;;;;;;;;;;5023184;28;20045;-68
2022/06/08 02:37:35;;;;;;;2.75;1.48;;;;;;;;;;5040812;28;20596;-69
2022/06/08 02:40:09;;;;;;;2.30;1.60;;;;;;;;;;5023513;28;20538;-67
2022/06/08 02:42:53;;;;;;;1.75;1.40;;;;;;;;;;5022358;28;20153;-68
2022/06/08 02:45:25;;;;;;;1.67;1.42;;;;;;;;;;5022953;28;20021;-68
2022/06/08 02:47:55;;;;;;;6.32;1.70;;;;;;;;;;5023320;28;20081;-68
2022/06/08 02:50:24;;;;;;;5.30;1.52;;;;;;;;;;5022650;28;20041;-67
2022/06/08 02:52:52;;;;;;;5.55;2.20;;;;;;;;;;5023432;28;20029;-68
2022/06/08 02:55:50;;;;;;;6.13;1.80;;;;;;;;;;4998146;28;20436;-68
2022/06/08 02:58:36;;;;;;;1.70;1.60;;;;;;;;;;5020357;28;20040;-69
2022/06/08 03:01:08;;;;;;;3.88;2.38;;;;;;;;;;5023323;28;20116;-70
2022/06/08 03:03:54;;;;;;;3.83;1.58;;;;;;;;;;5024563;28;20032;-69
2022/06/08 03:06:25;;;;;;;2.63;1.65;;;;;;;;;;5024052;28;20788;-69
2022/06/08 03:08:58;;;;;;;1.13;1.13;;;;;;;;;;5023823;28;20060;-70
2022/06/08 03:11:27;;;;;;;3.72;1.40;;;;;;;;;;5023559;28;20106;-68
2022/06/08 03:13:54;;;;;;;4.00;1.55;;;;;;;;;;5023768;28;20144;-70
2022/06/08 03:16:29;;;;;;;5.20;1.60;;;;;;;;;;5023198;28;20033;-69
2022/06/08 03:18:57;;;;;;;3.08;1.60;;;;;;;;;;5023660;28;20033;-72
2022/06/08 03:21:23;;;;;;;2.03;1.30;;;;;;;;;;5040960;28;20024;-69
2022/06/08 03:23:50;;;;;;;1.27;1.25;;;;;;;;;;5022877;28;20972;-69
2022/06/08 03:26:19;;;;;;;1.50;1.40;;;;;;;;;;5023852;28;20041;-69
2022/06/08 03:28:44;;;;;;;6.65;1.52;;;;;;;;;;5023759;28;20805;-69
2022/06/08 03:31:10;;;;;;;1.95;1.30;;;;;;;;;;5023556;28;20130;-69
2022/06/08 03:33:36;;;;;;;1.58;1.30;;;;;;;;;;5023282;28;21130;-71
2022/06/08 03:36:02;;;;;;;2.33;2.00;;;;;;;;;;5023155;28;20033;-69
2022/06/08 03:38:28;;;;;;;6.55;1.45;;;;;;;;;;5024205;28;20452;-68
2022/06/08 03:40:54;;;;;;;2.10;1.35;;;;;;;;;;5023741;28;20033;-70
2022/06/08 03:43:19;;;;;;;5.97;1.35;;;;;;;;;;5022277;28;20086;-68
2022/06/08 03:45:49;;;;;;;4.10;1.90;;;;;;;;;;5040018;28;20382;-69
2022/06/08 03:48:15;;;;;;;2.45;1.25;;;;;;;;;;5022940;28;20801;-68
2022/06/08 03:50:42;;;;;;;2.22;1.10;;;;;;;;;;5022801;28;20032;-69
2022/06/08 03:53:17;;;;;;;2.05;1.17;;;;;;;;;;5023661;28;20037;-68
2022/06/08 03:55:45;;;;;;;5.65;1.85;;;;;;;;;;5022506;28;20066;-69
2022/06/08 03:58:11;;;;;;;1.75;1.50;;;;;;;;;;5042073;28;20048;-71
2022/06/08 04:00:41;;;;;;;1.30;1.20;;;;;;;;;;5025239;28;20036;-69
2022/06/08 04:03:10;;;;;;;2.83;1.23;;;;;;;;;;5022265;28;20367;-69
2022/06/08 04:05:36;;;;;;;1.20;1.10;;;;;;;;;;5042678;28;20037;-69
2022/06/08 04:08:07;;;;;;;2.53;1.00;;;;;;;;;;5026364;28;20036;-69
2022/06/08 04:10:39;;;;;;;1.65;1.10;;;;;;;;;;5026426;28;20036;-69
2022/06/08 04:13:05;;;;;;;1.38;1.13;;;;;;;;;;5026057;28;20850;-69
2022/06/08 04:15:43;;;;;;;1.05;1.00;;;;;;;;;;5024818;28;20164;-69
2022/06/08 04:18:21;;;;;;;3.95;1.00;;;;;;;;;;5026125;28;20041;-69
2022/06/08 04:20:52;;;;;;;1.02;1.02;;;;;;;;;;5026140;28;20036;-69
2022/06/08 04:23:21;;;;;;;3.38;1.00;;;;;;;;;;5026178;28;20029;-69
2022/06/08 04:25:47;;;;;;;6.63;1.30;;;;;;;;;;5025175;28;20037;-69
2022/06/08 04:28:14;;;;;;;1.10;0.90;;;;;;;;;;5024913;28;20086;-69
2022/06/08 04:30:42;;;;;;;3.45;0.85;;;;;;;;;;5025589;28;20083;-68
2022/06/08 04:33:07;;;;;;;2.92;0.98;;;;;;;;;;5025591;28;20151;-68
2022/06/08 04:35:33;;;;;;;4.03;0.70;;;;;;;;;;5032954;28;20120;-68
2022/06/08 04:37:59;;;;;;;4.47;0.80;;;;;;;;;;5021767;28;20033;-68
2022/06/08 04:40:25;;;;;;;2.95;0.73;;;;;;;;;;5025883;28;20036;-69
2022/06/08 04:42:51;;;;;;;3.10;0.90;;;;;;;;;;5025824;28;20039;-71
2022/06/08 04:45:19;;;;;;;2.40;0.80;;;;;;;;;;5025241;28;20515;-69
2022/06/08 04:47:46;;;;;;;1.02;0.82;;;;;;;;;;5010204;28;20037;-69
2022/06/08 04:50:14;;;;;;;0.80;0.80;;;;;;;;;;5024322;28;20032;-68
2022/06/08 04:52:40;;;;;;;2.80;0.80;;;;;;;;;;5024964;28;20036;-70
2022/06/08 04:55:09;;;;;;;0.80;0.80;;;;;;;;;;5024649;28;20477;-70
2022/06/08 04:57:37;;;;;;;0.80;0.80;;;;;;;;;;5042178;28;20043;-70
2022/06/08 05:00:08;;;;;;;2.45;0.80;;;;;;;;;;5024633;28;20485;-71
2022/06/08 05:02:43;;;;;;;1.17;0.95;;;;;;;;;;5003350;28;21132;-71
2022/06/08 05:05:20;;;;;;;1.30;0.88;;;;;;;;;;5022894;28;20036;-70
2022/06/08 05:07:48;;;;;;;1.85;1.00;;;;;;;;;;5023402;28;20028;-69
2022/06/08 05:10:14;;;;;;;1.40;0.70;;;;;;;;;;5041877;28;20062;-71
2022/06/08 05:12:41;;;;;;;1.15;0.80;;;;;;;;;;5008934;28;20029;-71
2022/06/08 05:15:11;;;;;;;1.25;0.73;;;;;;;;;;5007739;28;20037;-70
2022/06/08 05:17:37;;;;;;;2.60;0.80;;;;;;;;;;5042457;28;20078;-71
2022/06/08 05:20:05;;;;;;;0.70;0.70;;;;;;;;;;5025061;28;20132;-71
2022/06/08 05:22:32;;;;;;;0.75;0.75;;;;;;;;;;5024204;28;20111;-68
2022/06/08 05:24:58;;;;;;;1.45;0.70;;;;;;;;;;5024611;28;20119;-69
2022/06/08 05:27:24;;;;;;;1.92;0.80;;;;;;;;;;5025058;28;20029;-69
2022/06/08 05:29:50;;;;;;;3.17;0.80;;;;;;;;;;5023833;28;21016;-70
2022/06/08 05:32:15;;;;;;;5.55;0.80;;;;;;;;;;5024213;28;20032;-70
2022/06/08 05:34:41;;;;;;;0.95;0.65;;;;;;;;;;5023759;28;20098;-69
2022/06/08 05:37:09;;;;;;;2.47;0.70;;;;;;;;;;5024854;28;20127;-71
2022/06/08 05:39:35;;;;;;;1.83;0.68;;;;;;;;;;5023552;28;20148;-69
2022/06/08 05:42:02;;;;;;;0.73;0.65;;;;;;;;;;5024927;28;20047;-68
2022/06/08 05:44:29;;;;;;;4.18;0.65;;;;;;;;;;5023557;28;20041;-68
2022/06/08 05:46:57;;;;;;;1.02;0.70;;;;;;;;;;5024198;28;20028;-71
2022/06/08 05:49:22;;;;;;;4.18;0.55;;;;;;;;;;5023759;28;20037;-71
2022/06/08 05:51:52;;;;;;;5.50;1.52;;;;;;;;;;5021257;28;20033;-70
2022/06/08 05:54:22;;;;;;;8.10;0.77;;;;;;;;;;5036647;28;20029;-69
2022/06/08 05:56:48;;;;;;;2.03;0.70;;;;;;;;;;5019119;28;20036;-69
2022/06/08 05:59:14;;;;;;;0.73;0.60;;;;;;;;;;5022935;28;20032;-70
2022/06/08 06:01:42;;;;;;;1.00;0.60;;;;;;;;;;5022174;28;20060;-69
2022/06/08 06:04:09;;;;;;;3.65;0.70;;;;;;;;;;5021863;28;20067;-69
2022/06/08 06:06:36;;;;;;;1.55;0.60;;;;;;;;;;5023098;28;20119;-69
2022/06/08 06:09:04;;;;;;;0.73;0.60;;;;;;;;;;5023698;28;20595;-68
2022/06/08 06:11:30;;;;;;;0.90;0.70;;;;;;;;;;5023290;28;20082;-69
2022/06/08 06:13:57;;;;;;;2.03;0.60;;;;;;;;;;5023204;28;20033;-69
2022/06/08 06:16:25;;;;;;;1.25;0.60;;;;;;;;;;5019378;28;20025;-69
2022/06/08 06:18:53;;;;;;;5.18;0.70;;;;;;;;;;5041115;28;20037;-69
2022/06/08 06:21:30;;;;;;;1.90;0.70;;;;;;;;;;5039169;28;20159;-68
2022/06/08 06:24:17;;;;;;;1.23;0.82;;;;;;;;;;5040816;28;20540;-69
2022/06/08 06:27:17;;;;;;;2.35;0.70;;;;;;;;;;5021224;28;20091;-69
2022/06/08 06:30:06;;;;;;;0.93;0.80;;;;;;;;;;5039856;28;20511;-69
2022/06/08 06:32:52;;;;;;;2.15;0.80;;;;;;;;;;5022751;28;20055;-69
2022/06/08 06:35:29;;;;;;;2.35;0.85;;;;;;;;;;5021663;28;20459;-69
2022/06/08 06:37:58;;;;;;;2.20;0.90;;;;;;;;;;5023077;28;20060;-69
2022/06/08 06:40:27;;;;;;;1.00;0.70;;;;;;;;;;5022471;28;20043;-69
2022/06/08 06:42:54;;;;;;;1.75;0.90;;;;;;;;;;5021526;28;20029;-70
2022/06/08 06:45:43;;;;;;;0.82;0.80;;;;;;;;;;5006332;28;20041;-69
2022/06/08 06:48:44;;;;;;;2.50;0.95;;;;;;;;;;5018614;28;20584;-69
2022/06/08 06:51:13;;;;;;;0.50;0.50;;;;;;;;;;5021155;28;20029;-70
2022/06/08 06:53:39;;;;;;;4.63;0.77;;;;;;;;;;5040625;28;20047;-70
2022/06/08 06:56:08;;;;;;;3.58;0.80;;;;;;;;;;5022130;28;20032;-70
2022/06/08 06:58:38;;;;;;;2.78;0.70;;;;;;;;;;5023727;28;20036;-70
2022/06/08 07:01:05;;;;;;;2.90;0.80;;;;;;;;;;5021774;28;20045;-69
2022/06/08 07:03:33;;;;;;;1.42;0.90;;;;;;;;;;5023078;28;20133;-74
2022/06/08 07:05:58;;;;;;;2.28;0.93;;;;;;;;;;5021720;28;20037;-69
2022/06/08 07:08:25;;;;;;;1.70;0.98;;;;;;;;;;5023093;28;20072;-69
2022/06/08 07:13:38;;;;;;;0.77;0.73;;;;;;;;;;5023620;28;20804;-69
2022/06/08 07:16:04;;;;;;;1.48;0.82;;;;;;;;;;5021168;28;20869;-69
2022/06/08 07:18:30;;;;;;;1.20;0.80;;;;;;;;;;5023163;28;20504;-70
2022/06/08 07:20:56;;;;;;;1.17;0.80;;;;;;;;;;5023069;28;20025;-69
2022/06/08 07:23:21;;;;;;;1.70;0.70;;;;;;;;;;5040269;28;20029;-69
2022/06/08 07:25:47;;;;;;;0.88;0.80;;;;;;;;;;5038752;28;21121;-69
2022/06/08 07:28:13;;;;;;;2.05;0.68;;;;;;;;;;5043540;28;20044;-69
2022/06/08 07:30:39;;;;;;;4.03;0.68;;;;;;;;;;5044483;28;20033;-69
2022/06/08 07:33:04;;;;;;;2.45;0.77;;;;;;;;;;5046056;28;20043;-71
2022/06/08 07:35:30;;;;;;;1.80;0.60;;;;;;;;;;5044167;28;20135;-72
2022/06/08 07:37:55;;;;;;;2.40;1.00;;;;;;;;;;5044015;28;20082;-68
2022/06/08 07:40:21;;;;;;;2.30;0.95;;;;;;;;;;5044420;28;20033;-72
2022/06/08 07:42:47;;;;;;;0.80;0.77;;;;;;;;;;5026775;28;20851;-71
2022/06/08 07:45:12;;;;;;;2.22;0.90;;;;;;;;;;5043019;28;20094;-70
2022/06/08 07:49:36;;;;;;;0.70;0.70;;;;;;;;;;5043648;28;20037;-69
2022/06/08 07:50:25;;;;;;;0.98;0.80;;;;;;;;;;5043917;28;20096;-68
2022/06/08 07:52:50;;;;;;;2.17;0.85;;;;;;;;;;5044746;28;20389;-69
2022/06/08 07:55:16;;;;;;;3.47;1.00;;;;;;;;;;5042557;28;20033;-68
2022/06/08 07:57:42;;;;;;;1.27;0.70;;;;;;;;;;5043896;28;20109;-70
2022/06/08 08:00:10;;;;;;;4.13;0.65;;;;;;;;;;5042910;28;20043;-71
2022/06/08 08:02:38;;;;;;;0.70;0.70;;;;;;;;;;5042088;28;20044;-71
2022/06/08 08:05:04;;;;;;;0.95;0.73;;;;;;;;;;5039317;28;20397;-71
2022/06/08 08:07:30;;;;;;;1.00;0.80;;;;;;;;;;5043032;28;20040;-71
2022/06/08 08:09:55;;;;;;;0.77;0.70;;;;;;;;;;5042978;28;20095;-71
2022/06/08 08:12:21;;;;;;;3.63;0.90;;;;;;;;;;5043884;28;20037;-69
2022/06/08 08:14:46;;;;;;;3.50;0.80;;;;;;;;;;5043122;28;20107;-69
2022/06/08 08:17:11;;;;;;;1.17;0.80;;;;;;;;;;5043019;28;20056;-70
2022/06/08 08:19:38;;;;;;;2.30;0.80;;;;;;;;;;5042787;28;20029;-71
2022/06/08 08:22:05;;;;;;;2.92;1.10;;;;;;;;;;5043741;28;20029;-71
2022/06/08 08:24:31;;;;;;;1.50;0.80;;;;;;;;;;5042810;28;20741;-71
2022/06/08 08:26:57;;;;;;;2.22;0.80;;;;;;;;;;5025470;28;20967;-69
2022/06/08 08:29:23;;;;;;;1.50;0.90;;;;;;;;;;5042382;28;20028;-70
2022/06/08 08:31:49;;;;;;;2.53;0.73;;;;;;;;;;5042537;28;20033;-68
2022/06/08 08:34:15;;;;;;;1.77;0.90;;;;;;;;;;5042304;28;20667;-70
2022/06/08 08:36:40;;;;;;;1.13;0.70;;;;;;;;;;5042591;28;20539;-69
2022/06/08 08:39:07;;;;;;;0.90;0.90;;;;;;;;;;5041019;28;20394;-69
2022/06/08 08:44:29;;;;;;;1.88;0.80;;;;;;;;;;5037774;28;20028;-70
2022/06/08 08:47:33;;;;;;;2.03;0.77;;;;;;;;;;5043191;28;20041;-70
2022/06/08 08:50:16;;;;;;;0.95;0.73;;;;;;;;;;5011553;28;20131;-70
2022/06/08 08:52:47;;;;;;;1.08;0.77;;;;;;;;;;5041969;28;20516;-69
2022/06/08 08:55:19;;;;;;;3.45;0.90;;;;;;;;;;5042581;28;20043;-70
2022/06/08 08:58:14;;;;;;;0.80;0.80;;;;;;;;;;5043220;28;20090;-70
2022/06/08 09:00:47;;;;;;;2.08;0.80;;;;;;;;;;5035251;28;20155;-72
2022/06/08 09:03:28;;;;;;;1.50;0.80;;;;;;;;;;5024094;28;20077;-70
2022/06/08 09:06:17;;;;;;;1.08;0.80;;;;;;;;;;5023799;28;20043;-69
2022/06/08 09:08:46;;;;;;;1.52;1.00;;;;;;;;;;5043231;28;20044;-69
2022/06/08 09:11:20;;;;;;;1.27;0.90;;;;;;;;;;5042536;28;20033;-69
2022/06/08 09:14:02;;;;;;;3.70;1.20;;;;;;;;;;5041719;28;20029;-70
2022/06/08 09:16:40;;;;;;;1.52;1.00;;;;;;;;;;5042553;28;20482;-70
2022/06/08 09:19:20;;;;;;;3.33;0.90;;;;;;;;;;5042848;28;20135;-73
2022/06/08 09:21:47;;;;;;;2.80;0.88;;;;;;;;;;5042111;28;20064;-71
2022/06/08 09:24:21;;;;;;;3.05;1.08;;;;;;;;;;5020839;28;20067;-72
2022/06/08 09:26:47;;;;;;;1.40;0.73;;;;;;;;;;5022707;28;20033;-71
2022/06/08 09:29:29;;;;;;;5.38;0.88;;;;;;;;;;5006478;28;20094;-72
2022/06/08 09:31:56;;;;;;;2.95;0.80;;;;;;;;;;5039920;28;20102;-69
2022/06/08 09:34:28;;;;;;;2.10;1.10;;;;;;;;;;5038624;28;20408;-71
2022/06/08 09:37:09;;;;;;;2.17;0.95;;;;;;;;;;5041166;28;20033;-71
2022/06/08 09:39:35;;;;;;;3.28;1.10;;;;;;;;;;5042187;28;20044;-70
2022/06/08 09:42:29;;;;;;;1.90;0.75;;;;;;;;;;5038931;28;20102;-70
2022/06/08 09:45:03;;;;;;;1.70;0.60;;;;;;;;;;5038375;28;20029;-69
2022/06/08 09:53:40;;;;;;;3.25;1.02;;;;;;;;;;4988846;28;20044;-70
2022/06/08 09:56:31;;;;;;;1.25;0.80;;;;;;;;;;5040493;28;20036;-70
2022/06/08 09:58:57;;;;;;;1.67;0.80;;;;;;;;;;5041262;28;20755;-69
2022/06/08 10:01:43;;;;;;;1.70;0.80;;;;;;;;;;5022849;28;20041;-69
2022/06/08 10:04:39;;;;;;;2.70;0.80;;;;;;;;;;5041359;28;20040;-69
2022/06/08 10:07:07;;;;;;;1.55;0.80;;;;;;;;;;5040869;28;20040;-69
2022/06/08 10:09:59;;;;;;;1.27;0.70;;;;;;;;;;5039651;28;20235;-69
2022/06/08 10:12:58;;;;;;;3.67;0.90;;;;;;;;;;5039889;28;20041;-69
2022/06/08 10:15:34;;;;;;;2.35;0.88;;;;;;;;;;5039674;28;20586;-69
2022/06/08 10:18:18;;;;;;;1.35;0.80;;;;;;;;;;5023214;28;20033;-70
2022/06/08 10:21:13;;;;;;;2.90;0.93;;;;;;;;;;5041637;28;20072;-70
2022/06/08 10:23:53;;;;;;;1.13;0.80;;;;;;;;;;5039661;28;20135;-69
2022/06/08 10:26:25;;;;;;;2.80;0.88;;;;;;;;;;5040556;28;20045;-70
2022/06/08 10:29:05;;;;;;;3.75;1.00;;;;;;;;;;5040819;28;20041;-72
2022/06/08 10:31:38;;;;;;;2.53;0.75;;;;;;;;;;5040520;28;20071;-69
2022/06/08 10:34:13;;;;;;;1.85;0.90;;;;;;;;;;5020070;28;20037;-70
2022/06/08 10:36:44;;;;;;;1.08;0.85;;;;;;;;;;5022524;28;20077;-70
2022/06/08 10:39:12;;;;;;;3.35;0.85;;;;;;;;;;5038021;28;20039;-69
2022/06/08 10:44:50;;;;;;;1.42;0.80;;;;;;;;;;5039613;28;20517;-70
2022/06/08 10:47:34;;;;;;;1.27;0.70;;;;;;;;;;5040820;28;20036;-69
2022/06/08 10:49:59;;;;;;;3.92;0.80;;;;;;;;;;5040213;28;20481;-73
2022/06/08 10:52:30;;;;;;;3.38;0.70;;;;;;;;;;5021909;28;20033;-70
2022/06/08 10:55:14;;;;;;;2.83;0.83;;;;;;;;;;5005918;28;20043;-70
2022/06/08 10:57:52;;;;;;;1.13;0.60;;;;;;;;;;5040110;28;20416;-72
2022/06/08 11:00:18;;;;;;;1.88;0.98;;;;;;;;;;5040031;28;20033;-73
2022/06/08 11:02:46;;;;;;;1.38;0.65;;;;;;;;;;5021536;28;20533;-73
2022/06/08 11:05:29;;;;;;;2.53;0.70;;;;;;;;;;5040708;28;20068;-75
2022/06/08 11:08:06;;;;;;;1.77;0.75;;;;;;;;;;5007426;28;20033;-70
2022/06/08 11:10:44;;;;;;;2.22;0.80;;;;;;;;;;5040594;28;20159;-69
2022/06/08 11:13:24;;;;;;;2.47;1.00;;;;;;;;;;5040016;28;20059;-72
2022/06/08 11:15:53;;;;;;;1.33;0.80;;;;;;;;;;5040940;28;20087;-72
2022/06/08 11:18:37;;;;;;;1.90;0.70;;;;;;;;;;5023669;28;20033;-72
2022/06/08 11:21:14;;;;;;;2.92;0.90;;;;;;;;;;5041031;28;20500;-71
2022/06/08 11:23:42;;;;;;;1.83;0.70;;;;;;;;;;5041868;28;20033;-72
2022/06/08 11:26:19;;;;;;;1.08;0.90;;;;;;;;;;5039486;28;20045;-73
2022/06/08 11:29:04;;;;;;;0.98;0.70;;;;;;;;;;5043580;28;20029;-71
2022/06/08 11:31:33;;;;;;;1.13;0.60;;;;;;;;;;5029983;28;20121;-73
2022/06/08 11:34:16;;;;;;;1.33;0.70;;;;;;;;;;5038930;28;20120;-72
2022/06/08 11:36:57;;;;;;;2.83;0.90;;;;;;;;;;5039374;28;20032;-72
2022/06/08 11:39:45;;;;;;;0.53;0.53;;;;;;;;;;5039572;28;20033;-72
2022/06/08 11:42:17;;;;;;;1.25;0.70;;;;;;;;;;4998619;28;20232;-71
2022/06/08 11:44:43;;;;;;;;;;;;;;;;;;5040263;28;20072;-71
2022/06/08 11:47:18;;;;;;;2.80;0.70;;;;;;;;;;5039691;28;20853;-73
2022/06/08 11:49:53;;;;;;;4.82;0.90;;;;;;;;;;5040126;28;20048;-73
2022/06/08 11:52:30;;;;;;;2.08;0.82;;;;;;;;;;5005453;28;20116;-74
2022/06/08 11:55:00;;;;;;;1.17;0.60;;;;;;;;;;5022003;28;20032;-72
2022/06/08 11:57:26;;;;;;;3.10;0.63;;;;;;;;;;5039731;28;20056;-73
2022/06/08 11:59:54;;;;;;;1.02;0.65;;;;;;;;;;5040412;28;20033;-73
2022/06/08 12:02:24;;;;;;;1.25;0.80;;;;;;;;;;5022157;28;20040;-72
2022/06/08 12:04:54;;;;;;;1.08;0.73;;;;;;;;;;5038731;28;20032;-72
2022/06/08 12:07:48;;;;;;;1.40;0.80;;;;;;;;;;5040491;28;20114;-73
2022/06/08 12:10:18;;;;;;;5.28;0.70;;;;;;;;;;5041057;28;20555;-74
2022/06/08 12:12:46;;;;;;;0.57;0.57;;;;;;;;;;5040316;28;20033;-73
2022/06/08 12:15:27;;;;;;;2.05;0.70;;;;;;;;;;5045956;28;20045;-74
2022/06/08 12:17:54;;;;;;;0.57;0.50;;;;;;;;;;5043341;28;20029;-73
2022/06/08 12:20:35;;;;;;;2.85;1.00;;;;;;;;;;5039396;28;20029;-73
2022/06/08 12:23:00;;;;;;;0.60;0.60;;;;;;;;;;5043463;28;20036;-73
2022/06/08 12:25:27;;;;;;;1.88;0.50;;;;;;;;;;5036961;28;20761;-73
2022/06/08 12:28:09;;;;;;;1.27;0.65;;;;;;;;;;5040451;28;20481;-72
2022/06/08 12:30:57;;;;;;;1.20;0.60;;;;;;;;;;5039373;28;20045;-73
2022/06/08 12:33:29;;;;;;;1.13;0.70;;;;;;;;;;5039087;28;20025;-72
2022/06/08 12:35:56;;;;;;;;;;;;;;;;;;5020012;28;20036;-73
2022/06/08 12:38:29;;;;;;;1.10;0.70;;;;;;;;;;5040058;28;19943;-71
2022/06/08 12:41:04;;;;;;;3.30;0.80;;;;;;;;;;5041113;28;20047;-72
2022/06/08 12:43:42;;;;;;;3.92;0.82;;;;;;;;;;5042659;28;20036;-71
2022/06/08 12:46:26;;;;;;;2.17;0.57;;;;;;;;;;5041574;28;20041;-71
2022/06/08 12:48:54;;;;;;;0.75;0.60;;;;;;;;;;5043576;28;20405;-71
2022/06/08 12:51:29;;;;;;;2.30;0.73;;;;;;;;;;5043182;28;20032;-73
2022/06/08 12:53:56;;;;;;;3.03;0.70;;;;;;;;;;5024753;28;20451;-73
2022/06/08 12:56:22;;;;;;;0.93;0.70;;;;;;;;;;5041638;28;20040;-71
2022/06/08 12:58:52;;;;;;;1.75;0.80;;;;;;;;;;5043325;28;20178;-71
2022/06/08 13:01:23;;;;;;;59.53;48.25;;;;;;;;;;5043304;28;20508;-71
2022/06/08 13:03:49;;;;;;;4.30;3.50;;;;;;;;;;5042259;28;20032;-73
2022/06/08 13:06:15;;;;;;;3.30;1.05;;;;;;;;;;5041974;28;20481;-72
2022/06/08 13:08:42;;;;;;;2.35;2.00;;;;;;;;;;5041455;28;20409;-73
2022/06/08 13:11:14;;;;;;;1.65;1.20;;;;;;;;;;5042988;28;20127;-72
2022/06/08 13:13:40;;;;;;;2.45;1.70;;;;;;;;;;5025089;28;20033;-72
2022/06/08 13:16:21;;;;;;;1.30;1.00;;;;;;;;;;5041230;28;20029;-72
2022/06/08 13:18:48;;;;;;;9.40;0.80;;;;;;;;;;5042513;28;20083;-72
2022/06/08 13:21:13;;;;;;;0.98;0.88;;;;;;;;;;5041231;28;20040;-71
2022/06/08 13:23:39;;;;;;;1.58;0.70;;;;;;;;;;5042830;28;20032;-71
2022/06/08 13:26:12;;;;;;;2.55;1.38;;;;;;;;;;5039916;28;20090;-71
2022/06/08 13:28:37;;;;;;;1.45;0.60;;;;;;;;;;5042240;28;20028;-71
2022/06/08 13:31:05;;;;;;;2.22;0.90;;;;;;;;;;5042279;28;20090;-71
2022/06/08 13:36:22;;;;;;;0.68;0.60;;;;;;;;;;5041575;28;20040;-71
2022/06/08 13:38:56;;;;;;;0.70;0.50;;;;;;;;;;5042225;28;20025;-70
2022/06/08 13:41:22;;;;;;;3.10;0.70;;;;;;;;;;5042415;28;20043;-71
2022/06/08 13:43:47;;;;;;;3.80;0.63;;;;;;;;;;5042885;28;20032;-71
2022/06/08 13:46:23;;;;;;;2.60;0.77;;;;;;;;;;5041137;28;20040;-71
2022/06/08 13:48:51;;;;;;;0.75;0.60;;;;;;;;;;5023771;28;20032;-71
2022/06/08 13:51:17;;;;;;;1.13;0.82;;;;;;;;;;5041190;28;20029;-70
2022/06/08 13:53:44;;;;;;;2.85;0.70;;;;;;;;;;5042373;28;20873;-71
2022/06/08 13:56:11;;;;;;;1.77;0.68;;;;;;;;;;5041389;28;20036;-72
2022/06/08 13:58:37;;;;;;;2.70;0.60;;;;;;;;;;5041485;28;20048;-70
2022/06/08 14:01:15;;;;;;;6.38;0.80;;;;;;;;;;5040797;28;20028;-70
2022/06/08 14:03:40;;;;;;;0.50;0.50;;;;;;;;;;5042274;28;20068;-70
2022/06/08 14:14:24;;;;;;;1.05;0.50;;;;;;;;;;5037448;28;20228;-71
2022/06/08 14:16:54;;;;;;;0.70;0.65;;;;;;;;;;5038191;28;20029;-71
2022/06/08 14:19:30;;;;;;;0.57;0.47;;;;;;;;;;5038839;28;20127;-70
2022/06/08 14:21:57;;;;;;;0.47;0.47;;;;;;;;;;5038087;28;20101;-69
2022/06/08 14:24:32;;;;;;;0.47;0.43;;;;;;;;;;5039573;28;20174;-68
2022/06/08 14:26:58;;;;;;;1.58;0.60;;;;;;;;;;5040436;28;20124;-68
2022/06/08 14:29:25;;;;;;;0.70;0.70;;;;;;;;;;5022703;28;20166;-71
2022/06/08 14:31:53;;;;;;;0.40;0.40;;;;;;;;;;5039088;28;20036;-69
2022/06/08 14:34:28;;;;;;;0.70;0.70;;;;;;;;;;5039925;28;20584;-69
2022/06/08 14:36:56;;;;;;;0.55;0.55;;;;;;;;;;5036379;28;20025;-69
2022/06/08 14:39:25;;;;;;;1.63;0.60;;;;;;;;;;5039665;28;20028;-69
2022/06/08 14:41:52;;;;;;;2.33;0.88;;;;;;;;;;5039199;28;20098;-69
2022/06/08 14:44:20;;;;;;;1.95;0.60;;;;;;;;;;5039784;28;20032;-69
2022/06/08 14:46:52;;;;;;;1.02;0.60;;;;;;;;;;5037033;28;20033;-69
2022/06/08 14:49:25;;;;;;;2.53;0.60;;;;;;;;;;5041208;28;20033;-69
2022/06/08 14:51:53;;;;;;;1.95;0.70;;;;;;;;;;5040721;28;20054;-69
2022/06/08 14:54:21;;;;;;;1.92;0.85;;;;;;;;;;5039307;28;20089;-69
2022/06/08 14:56:49;;;;;;;2.72;0.80;;;;;;;;;;5040117;28;20063;-68
2022/06/08 14:59:23;;;;;;;1.27;0.73;;;;;;;;;;5040715;28;20043;-69
2022/06/08 15:01:54;;;;;;;1.85;0.60;;;;;;;;;;5040862;28;20547;-71
2022/06/08 15:04:23;;;;;;;3.00;0.80;;;;;;;;;;5039436;28;20029;-71
2022/06/08 15:06:50;;;;;;;1.63;0.75;;;;;;;;;;5022085;28;20033;-69
2022/06/08 15:09:17;;;;;;;0.90;0.57;;;;;;;;;;5041093;28;20509;-70
2022/06/08 15:12:02;;;;;;;2.88;1.17;;;;;;;;;;5040371;28;20131;-69
2022/06/08 15:14:35;;;;;;;8.40;0.85;;;;;;;;;;5040845;28;20033;-69
2022/06/08 15:17:05;;;;;;;1.15;0.70;;;;;;;;;;5038381;28;20916;-69
2022/06/08 15:19:34;;;;;;;0.60;0.60;;;;;;;;;;5041026;28;20037;-70
2022/06/08 15:22:00;;;;;;;0.50;0.50;;;;;;;;;;5040729;28;20541;-69
2022/06/08 15:24:29;;;;;;;1.15;0.60;;;;;;;;;;5038537;28;20036;-69
2022/06/08 15:26:56;;;;;;;1.30;0.57;;;;;;;;;;5038573;28;20045;-69
2022/06/08 15:29:26;;;;;;;1.10;0.60;;;;;;;;;;5040574;28;20025;-68
2022/06/08 15:31:52;;;;;;;0.85;0.70;;;;;;;;;;5040492;28;20033;-68
2022/06/08 15:34:25;;;;;;;0.90;0.63;;;;;;;;;;5041261;28;20029;-69
2022/06/08 15:36:55;;;;;;;1.67;0.70;;;;;;;;;;5038935;28;20112;-69
2022/06/08 15:39:26;;;;;;;1.08;0.68;;;;;;;;;;5039809;28;20041;-68
2022/06/08 15:41:51;;;;;;;10.15;7.55;;;;;;;;;;5040699;28;20036;-69